createdAt,value
2023-02-19T00:01:01.569Z,100197.78
2023-02-19T00:04:11.671Z,100194.28
2023-02-19T00:07:13.981Z,100190.72
2023-02-19T00:10:16.349Z,100198.38
2023-02-19T00:13:19.336Z,100188.97
2023-02-19T00:16:24.321Z,100191.41
2023-02-19T00:19:26.646Z,100183.16
2023-02-19T00:22:29.046Z,100197.44
2023-02-19T00:25:31.279Z,100192.34
2023-02-19T00:28:34.747Z,100198.63
2023-02-19T00:31:37.158Z,100198.50
2023-02-19T00:34:39.558Z,100205.00
2023-02-19T00:37:42.350Z,100214.63
2023-02-19T00:40:45.123Z,100210.91
2023-02-19T00:43:47.687Z,100218.81
2023-02-19T00:46:49.984Z,100205.69
2023-02-19T00:49:52.256Z,100209.88
2023-02-19T00:52:54.522Z,100204.53
2023-02-19T00:55:56.888Z,100199.66
2023-02-19T00:58:59.309Z,100215.31
2023-02-19T01:02:01.619Z,100216.03
2023-02-19T01:05:05.677Z,100215.78
2023-02-19T01:08:07.916Z,100208.00
2023-02-19T01:11:11.426Z,100217.97
2023-02-19T01:14:14.244Z,100196.88
2023-02-19T01:17:16.551Z,100194.66
2023-02-19T01:20:18.768Z,100190.00
2023-02-19T01:23:21.133Z,100207.66
2023-02-19T01:26:26.650Z,100194.66
2023-02-19T01:29:29.043Z,100207.66
2023-02-19T01:32:31.378Z,100193.38
2023-02-19T01:35:34.208Z,100202.88
2023-02-19T01:38:36.545Z,100199.06
2023-02-19T01:41:40.691Z,100214.28
2023-02-19T01:44:42.967Z,100212.06
2023-02-19T01:47:46.909Z,100213.81
2023-02-19T01:50:55.917Z,100212.63
2023-02-19T01:54:00.675Z,100203.50
2023-02-19T01:57:08.758Z,100204.41
2023-02-19T02:00:13.419Z,100199.41
2023-02-19T02:03:16.401Z,100199.41
2023-02-19T02:06:28.704Z,100202.16
2023-02-19T02:09:50.073Z,100185.69
2023-02-19T02:12:56.766Z,100182.91
2023-02-19T02:16:17.323Z,100194.75
2023-02-19T02:19:38.440Z,100188.34
2023-02-19T02:23:00.763Z,100201.84
2023-02-19T02:26:09.585Z,100197.28
2023-02-19T02:29:42.913Z,100175.00
2023-02-19T02:33:14.868Z,100184.53
2023-02-19T02:36:21.487Z,100175.81
2023-02-19T02:39:26.342Z,100170.72
2023-02-19T02:42:29.332Z,100164.53
2023-02-19T02:45:40.102Z,100164.78
2023-02-19T02:49:03.926Z,100175.16
2023-02-19T02:52:29.284Z,100171.19
2023-02-19T02:55:36.175Z,100169.09
2023-02-19T02:58:38.770Z,100169.94
2023-02-19T03:02:09.031Z,100178.50
2023-02-19T03:05:39.636Z,100181.31
2023-02-19T03:08:44.922Z,100174.22
2023-02-19T03:12:08.458Z,100192.09
2023-02-19T03:15:31.609Z,100187.69
2023-02-19T03:18:54.569Z,100174.56
2023-02-19T03:22:27.960Z,100188.97
2023-02-19T03:25:50.899Z,100178.41
2023-02-19T03:29:19.871Z,100180.97
2023-02-19T03:32:36.856Z,100178.41
2023-02-19T03:35:49.573Z,100207.75
2023-02-19T03:39:00.003Z,100197.09
2023-02-19T03:42:08.973Z,100182.00
2023-02-19T03:45:44.668Z,100187.59
2023-02-19T03:49:02.013Z,100184.09
2023-02-19T03:52:16.598Z,100186.88
2023-02-19T03:55:34.854Z,100176.91
2023-02-19T03:59:10.550Z,100192.66
2023-02-19T04:02:34.140Z,100168.91
2023-02-19T04:05:44.685Z,100184.09
2023-02-19T04:08:50.338Z,100170.50
2023-02-19T04:11:54.434Z,100192.19
2023-02-19T04:15:04.991Z,100176.75
2023-02-19T04:18:09.891Z,100183.63
2023-02-19T04:21:12.864Z,100179.31
2023-02-19T04:24:55.509Z,100176.66
2023-02-19T04:27:58.869Z,100173.50
2023-02-19T04:31:01.755Z,100164.94
2023-02-19T04:34:04.998Z,100174.09
2023-02-19T04:37:07.740Z,100176.28
2023-02-19T04:40:10.599Z,100162.13
2023-02-19T04:43:12.907Z,100161.47
2023-02-19T04:46:15.250Z,100167.38
2023-02-19T04:49:17.526Z,100168.91
2023-02-19T04:52:19.814Z,100172.25
2023-02-19T04:55:22.177Z,100173.88
2023-02-19T04:58:24.455Z,100177.78
2023-02-19T05:01:26.849Z,100194.59
2023-02-19T05:04:29.221Z,100166.47
2023-02-19T05:07:32.586Z,100178.88
2023-02-19T05:10:35.009Z,100176.56
2023-02-19T05:13:37.859Z,100188.72
2023-02-19T05:16:40.164Z,100191.97
2023-02-19T05:19:42.479Z,100198.47
2023-02-19T05:22:44.783Z,100188.50
2023-02-19T05:25:47.511Z,100191.94
2023-02-19T05:28:53.567Z,100210.97
2023-02-19T05:31:56.043Z,100209.34
2023-02-19T05:34:58.346Z,100197.97
2023-02-19T05:38:00.656Z,100197.59
2023-02-19T05:41:19.235Z,100193.31
2023-02-19T05:44:21.645Z,100182.03
2023-02-19T05:47:23.881Z,100185.19
2023-02-19T05:50:26.627Z,100183.81
2023-02-19T05:53:29.072Z,100178.00
2023-02-19T05:56:36.890Z,100189.25
2023-02-19T05:59:39.248Z,100197.03
2023-02-19T06:02:41.679Z,100205.00
2023-02-19T06:05:44.010Z,100203.19
2023-02-19T06:08:48.428Z,100212.53
2023-02-19T06:11:50.714Z,100213.59
2023-02-19T06:14:53.020Z,100207.88
2023-02-19T06:17:55.280Z,100207.88
2023-02-19T06:21:05.027Z,100208.03
2023-02-19T06:24:08.631Z,100197.16
2023-02-19T06:27:11.542Z,100198.63
2023-02-19T06:30:13.941Z,100188.38
2023-02-19T06:33:16.251Z,100207.38
2023-02-19T06:36:20.837Z,100197.63
2023-02-19T06:39:23.119Z,100188.50
2023-02-19T06:42:25.406Z,100185.91
2023-02-19T06:45:27.698Z,100179.69
2023-02-19T06:48:31.004Z,100174.00
2023-02-19T06:51:33.544Z,100178.88
2023-02-19T06:54:35.910Z,100183.09
2023-02-19T06:57:38.225Z,100190.34
2023-02-19T07:00:40.530Z,100195.28
2023-02-19T07:03:42.876Z,100191.13
2023-02-19T07:06:45.193Z,100177.63
2023-02-19T07:09:47.538Z,100188.09
2023-02-19T07:12:49.828Z,100194.53
2023-02-19T07:15:52.509Z,100195.75
2023-02-19T07:18:59.386Z,100201.06
2023-02-19T07:22:01.695Z,100203.13
2023-02-19T07:25:04.102Z,100205.63
2023-02-19T07:28:06.859Z,100200.53
2023-02-19T07:31:09.734Z,100195.13
2023-02-19T07:34:12.215Z,100200.88
2023-02-19T07:37:14.428Z,100197.78
2023-02-19T07:40:16.846Z,100178.34
2023-02-19T07:43:19.484Z,100169.63
2023-02-19T07:46:22.784Z,100173.25
2023-02-19T07:49:25.155Z,100176.28
2023-02-19T07:52:28.360Z,100178.31
2023-02-19T07:55:32.476Z,100183.53
2023-02-19T07:58:35.525Z,100194.84
2023-02-19T08:01:56.613Z,100191.50
2023-02-19T08:04:58.971Z,100180.66
2023-02-19T08:08:01.354Z,100201.66
2023-02-19T08:11:23.894Z,100194.94
2023-02-19T08:14:27.267Z,100211.16
2023-02-19T08:17:31.210Z,100219.16
2023-02-19T08:20:33.590Z,100219.88
2023-02-19T08:23:36.459Z,100217.81
2023-02-19T08:26:38.765Z,100223.75
2023-02-19T08:29:41.169Z,100210.50
2023-02-19T08:32:43.509Z,100222.44
2023-02-19T08:35:46.613Z,100232.28
2023-02-19T08:38:49.006Z,100239.38
2023-02-19T08:41:51.399Z,100227.19
2023-02-19T08:44:53.714Z,100219.94
2023-02-19T08:47:56.038Z,100213.53
2023-02-19T08:51:00.811Z,100229.16
2023-02-19T08:54:04.634Z,100214.31
2023-02-19T08:57:06.978Z,100214.31
2023-02-19T09:00:10.092Z,100201.59
2023-02-19T09:03:12.472Z,100216.22
2023-02-19T09:06:19.735Z,100213.69
2023-02-19T09:09:22.117Z,100221.06
2023-02-19T09:12:25.371Z,100206.72
2023-02-19T09:15:29.755Z,100215.97
2023-02-19T09:18:32.317Z,100216.94
2023-02-19T09:21:34.967Z,100219.00
2023-02-19T09:24:37.374Z,100199.72
2023-02-19T09:27:39.684Z,100196.84
2023-02-19T09:30:42.113Z,100201.56
2023-02-19T09:33:46.203Z,100195.34
2023-02-19T09:36:51.758Z,100199.66
2023-02-19T09:39:54.924Z,100193.75
2023-02-19T09:42:57.396Z,100185.31
2023-02-19T09:46:07.164Z,100195.97
2023-02-19T09:49:19.951Z,100179.94
2023-02-19T09:52:31.373Z,100184.19
2023-02-19T09:55:39.732Z,100187.25
2023-02-19T09:58:48.313Z,100185.47
2023-02-19T10:01:56.474Z,100168.78
2023-02-19T10:04:59.238Z,100168.16
2023-02-19T10:08:05.376Z,100155.59
2023-02-19T10:11:12.024Z,100159.00
2023-02-19T10:14:19.151Z,100150.97
2023-02-19T10:17:31.502Z,100144.53
2023-02-19T10:20:34.221Z,100129.06
2023-02-19T10:23:36.561Z,100127.72
2023-02-19T10:26:39.687Z,100127.75
2023-02-19T10:29:47.170Z,100114.03
2023-02-19T10:33:14.454Z,100105.66
2023-02-19T10:36:34.207Z,100093.66
2023-02-19T10:39:47.545Z,100089.94
2023-02-19T10:42:52.748Z,100085.81
2023-02-19T10:45:55.182Z,100087.72
2023-02-19T10:48:59.951Z,100081.75
2023-02-19T10:52:18.516Z,100066.72
2023-02-19T10:55:31.475Z,100061.56
2023-02-19T10:58:38.001Z,100053.91
2023-02-19T11:02:02.955Z,100044.94
2023-02-19T11:05:16.501Z,100046.56
2023-02-19T11:08:23.899Z,100027.38
2023-02-19T11:11:30.452Z,100013.59
2023-02-19T11:14:33.921Z,100020.81
2023-02-19T11:17:36.633Z,100022.53
2023-02-19T11:20:50.062Z,100012.28
2023-02-19T11:23:52.550Z,99992.09
2023-02-19T11:26:57.660Z,100002.81
2023-02-19T11:30:28.186Z,100001.97
2023-02-19T11:33:31.115Z,99995.13
2023-02-19T11:36:36.940Z,99977.56
2023-02-19T11:39:44.773Z,99950.59
2023-02-19T11:43:01.536Z,99970.91
2023-02-19T11:46:27.760Z,99983.25
2023-02-19T11:49:52.974Z,99984.13
2023-02-19T11:52:58.276Z,99977.44
2023-02-19T11:56:21.963Z,99949.34
2023-02-19T11:59:37.779Z,99980.03
2023-02-19T12:03:05.749Z,99958.09
2023-02-19T12:06:27.144Z,99975.03
2023-02-19T12:09:35.228Z,99975.31
2023-02-19T12:12:59.434Z,99955.41
2023-02-19T12:16:19.783Z,99961.03
2023-02-19T12:19:43.189Z,99957.00
2023-02-19T12:22:54.415Z,99963.44
2023-02-19T12:26:05.666Z,99962.38
2023-02-19T12:29:11.080Z,99967.22
2023-02-19T12:32:31.928Z,99952.72
2023-02-19T12:35:45.205Z,99953.72
2023-02-19T12:39:11.818Z,99964.31
2023-02-19T12:42:46.194Z,99970.19
2023-02-19T12:46:02.045Z,99970.00
2023-02-19T12:49:32.112Z,99966.13
2023-02-19T12:52:40.350Z,99963.28
2023-02-19T12:55:46.163Z,99981.72
2023-02-19T12:59:14.109Z,99970.13
2023-02-19T13:02:19.138Z,99988.19
2023-02-19T13:05:49.822Z,99985.47
2023-02-19T13:09:21.674Z,99979.91
2023-02-19T13:12:29.637Z,99986.09
2023-02-19T13:15:37.222Z,99972.66
2023-02-19T13:18:45.565Z,99988.13
2023-02-19T13:22:33.479Z,99981.97
2023-02-19T13:26:09.930Z,99976.50
2023-02-19T13:29:54.256Z,99984.53
2023-02-19T13:33:22.906Z,99974.25
2023-02-19T13:36:29.370Z,99984.06
2023-02-19T13:39:31.894Z,99983.72
2023-02-19T13:42:35.721Z,99969.34
2023-02-19T13:45:43.561Z,99965.53
2023-02-19T13:48:45.898Z,100005.31
2023-02-19T13:51:51.169Z,100005.16
2023-02-19T13:55:31.749Z,99990.91
2023-02-19T13:58:34.043Z,100007.00
2023-02-19T14:01:52.039Z,100008.56
2023-02-19T14:05:03.641Z,100015.22
2023-02-19T14:08:09.106Z,100011.09
2023-02-19T14:11:14.430Z,100028.09
2023-02-19T14:14:36.311Z,100038.19
2023-02-19T14:17:40.812Z,100036.91
2023-02-19T14:20:45.091Z,100039.78
2023-02-19T14:23:53.950Z,100055.16
2023-02-19T14:26:57.270Z,100059.63
2023-02-19T14:29:59.961Z,100058.41
2023-02-19T14:33:10.508Z,100073.34
2023-02-19T14:36:26.917Z,100084.16
2023-02-19T14:39:31.304Z,100072.78
2023-02-19T14:42:34.539Z,100073.25
2023-02-19T14:45:42.549Z,100094.59
2023-02-19T14:48:47.783Z,100103.84
2023-02-19T14:51:53.078Z,100106.13
2023-02-19T14:55:08.984Z,100104.84
2023-02-19T14:58:14.625Z,100107.91
2023-02-19T15:01:27.545Z,100087.72
2023-02-19T15:04:35.570Z,100099.44
2023-02-19T15:07:38.052Z,100085.88
2023-02-19T15:10:42.422Z,100081.97
2023-02-19T15:13:51.512Z,100093.47
2023-02-19T15:16:58.111Z,100090.84
2023-02-19T15:20:09.712Z,100089.00
2023-02-19T15:23:17.457Z,100086.69
2023-02-19T15:26:22.947Z,100096.44
2023-02-19T15:29:27.041Z,100083.22
2023-02-19T15:32:29.388Z,100075.94
2023-02-19T15:35:33.475Z,100069.78
2023-02-19T15:38:35.809Z,100072.22
2023-02-19T15:41:38.406Z,100084.88
2023-02-19T15:44:43.650Z,100100.88
2023-02-19T15:47:50.260Z,100104.38
2023-02-19T15:50:57.735Z,100116.00
2023-02-19T15:54:08.654Z,100116.91
2023-02-19T15:57:15.096Z,100138.94
2023-02-19T16:00:21.578Z,100141.38
2023-02-19T16:03:25.774Z,100138.38
2023-02-19T16:06:28.627Z,100133.50
2023-02-19T16:09:37.639Z,100135.34
2023-02-19T16:12:41.073Z,100150.88
2023-02-19T16:15:58.775Z,100155.31
2023-02-19T16:19:01.174Z,100150.06
2023-02-19T16:22:13.410Z,100134.53
2023-02-19T16:25:31.174Z,100143.91
2023-02-19T16:28:38.008Z,100142.41
2023-02-19T16:31:51.635Z,100145.91
2023-02-19T16:34:54.023Z,100157.63
2023-02-19T16:37:58.999Z,100143.59
2023-02-19T16:41:07.482Z,100155.19
2023-02-19T16:44:25.025Z,100177.94
2023-02-19T16:47:37.817Z,100155.19
2023-02-19T16:50:41.603Z,100130.41
2023-02-19T16:53:43.977Z,100157.06
2023-02-19T16:56:46.396Z,100162.34
2023-02-19T16:59:48.779Z,100176.72
2023-02-19T17:02:52.992Z,100168.53
2023-02-19T17:05:56.533Z,100176.84
2023-02-19T17:08:59.201Z,100187.13
2023-02-19T17:12:02.415Z,100193.78
2023-02-19T17:15:04.917Z,100208.59
2023-02-19T17:18:09.513Z,100210.47
2023-02-19T17:21:20.609Z,100202.75
2023-02-19T17:24:24.586Z,100211.22
2023-02-19T17:27:26.913Z,100203.97
2023-02-19T17:30:31.728Z,100220.44
2023-02-19T17:33:34.167Z,100218.91
2023-02-19T17:36:38.078Z,100223.06
2023-02-19T17:39:40.427Z,100227.50
2023-02-19T17:42:42.802Z,100219.06
2023-02-19T17:45:45.212Z,100224.81
2023-02-19T17:48:47.818Z,100235.63
2023-02-19T17:51:50.108Z,100242.22
2023-02-19T17:54:52.499Z,100261.63
2023-02-19T17:57:54.878Z,100250.28
2023-02-19T18:00:57.848Z,100246.91
2023-02-19T18:04:01.473Z,100245.72
2023-02-19T18:07:03.956Z,100268.28
2023-02-19T18:10:07.239Z,100283.91
2023-02-19T18:13:10.587Z,100279.97
2023-02-19T18:16:15.605Z,100272.72
2023-02-19T18:19:19.619Z,100284.91
2023-02-19T18:22:23.186Z,100296.91
2023-02-19T18:25:25.635Z,100302.69
2023-02-19T18:28:27.932Z,100308.78
2023-02-19T18:31:37.313Z,100304.47
2023-02-19T18:34:39.924Z,100325.06
2023-02-19T18:37:42.956Z,100321.72
2023-02-19T18:40:45.342Z,100329.41
2023-02-19T18:43:48.260Z,100345.63
2023-02-19T18:46:50.732Z,100353.06
2023-02-19T18:49:55.856Z,100352.19
2023-02-19T18:52:58.282Z,100346.44
2023-02-19T18:56:02.107Z,100349.88
2023-02-19T18:59:04.378Z,100357.00
2023-02-19T19:02:10.298Z,100358.22
2023-02-19T19:05:13.773Z,100363.25
2023-02-19T19:08:16.311Z,100365.28
2023-02-19T19:11:18.674Z,100355.97
2023-02-19T19:14:21.321Z,100349.75
2023-02-19T19:17:23.650Z,100335.06
2023-02-19T19:20:25.946Z,100334.34
2023-02-19T19:23:28.207Z,100329.06
2023-02-19T19:26:30.541Z,100341.69
2023-02-19T19:29:32.851Z,100351.66
2023-02-19T19:32:35.143Z,100340.03
2023-02-19T19:35:37.423Z,100350.72
2023-02-19T19:38:41.323Z,100374.97
2023-02-19T19:41:43.672Z,100393.16
2023-02-19T19:44:46.013Z,100400.66
2023-02-19T19:47:48.974Z,100416.03
2023-02-19T19:50:51.193Z,100428.75
2023-02-19T19:53:53.915Z,100442.09
2023-02-19T19:56:56.256Z,100465.22
2023-02-19T19:59:58.553Z,100444.97
2023-02-19T20:03:00.981Z,100488.03
2023-02-19T20:06:03.399Z,100489.63
2023-02-19T20:09:05.730Z,100501.06
2023-02-19T20:12:08.720Z,100497.34
2023-02-19T20:15:11.071Z,100509.03
2023-02-19T20:18:13.304Z,100488.34
2023-02-19T20:21:15.612Z,100506.56
2023-02-19T20:24:20.900Z,100509.38
2023-02-19T20:27:23.640Z,100509.94
2023-02-19T20:30:26.153Z,100505.00
2023-02-19T20:33:28.480Z,100516.22
2023-02-19T20:36:32.176Z,100512.31
2023-02-19T20:39:35.439Z,100505.22
2023-02-19T20:42:37.973Z,100521.41
2023-02-19T20:45:41.121Z,100521.66
2023-02-19T20:48:43.395Z,100514.50
2023-02-19T20:51:55.739Z,100530.22
2023-02-19T20:54:58.066Z,100528.81
2023-02-19T20:58:00.389Z,100543.81
2023-02-19T21:01:02.730Z,100547.25
2023-02-19T21:04:05.124Z,100551.56
2023-02-19T21:07:07.470Z,100551.59
2023-02-19T21:10:10.304Z,100557.72
2023-02-19T21:13:12.986Z,100553.81
2023-02-19T21:16:15.546Z,100563.63
2023-02-19T21:19:17.950Z,100582.88
2023-02-19T21:22:20.387Z,100572.44
2023-02-19T21:25:22.775Z,100576.75
2023-02-19T21:28:25.046Z,100585.91
2023-02-19T21:31:36.670Z,100585.13
2023-02-19T21:34:39.031Z,100586.84
2023-02-19T21:37:43.176Z,100575.25
2023-02-19T21:40:45.453Z,100578.53
2023-02-19T21:43:47.705Z,100588.50
2023-02-19T21:46:50.071Z,100562.94
2023-02-19T21:49:52.389Z,100584.09
2023-02-19T21:52:55.240Z,100594.69
2023-02-19T21:55:59.153Z,100626.75
2023-02-19T21:59:01.938Z,100612.69
2023-02-19T22:02:04.206Z,100638.84
2023-02-19T22:05:06.970Z,100628.53
2023-02-19T22:08:09.290Z,100636.63
2023-02-19T22:11:11.813Z,100648.50
2023-02-19T22:14:14.174Z,100652.28
2023-02-19T22:17:16.501Z,100663.41
2023-02-19T22:20:19.661Z,100675.56
2023-02-19T22:23:21.977Z,100680.03
2023-02-19T22:26:32.566Z,100701.69
2023-02-19T22:29:34.989Z,100698.59
2023-02-19T22:32:37.427Z,100705.63
2023-02-19T22:35:39.734Z,100715.31
2023-02-19T22:38:42.141Z,100715.78
2023-02-19T22:41:44.709Z,100726.16
2023-02-19T22:44:47.067Z,100720.88
2023-02-19T22:47:49.340Z,100733.19
2023-02-19T22:50:52.671Z,100724.88
2023-02-19T22:53:56.393Z,100724.31
2023-02-19T22:56:58.671Z,100743.25
2023-02-19T23:00:00.962Z,100741.91
2023-02-19T23:03:03.338Z,100764.34
2023-02-19T23:06:05.673Z,100772.16
2023-02-19T23:09:11.117Z,100779.03
2023-02-19T23:12:13.494Z,100790.19
2023-02-19T23:15:15.909Z,100783.50
2023-02-19T23:18:18.206Z,100807.19
2023-02-19T23:21:21.902Z,100807.06
2023-02-19T23:24:24.595Z,100806.88
2023-02-19T23:27:28.553Z,100813.50
2023-02-19T23:30:30.996Z,100809.25
2023-02-19T23:33:34.068Z,100814.00
2023-02-19T23:36:47.512Z,100815.81
2023-02-19T23:39:49.771Z,100807.38
2023-02-19T23:42:52.078Z,100794.63
2023-02-19T23:45:54.525Z,100811.06
2023-02-19T23:48:56.770Z,100808.31
2023-02-19T23:51:59.115Z,100830.19
2023-02-19T23:55:01.466Z,100812.25
2023-02-19T23:58:03.739Z,100817.28
